sensor_id;sensor_type;location;lat;lon;timestamp;P1;durP1;ratioP1;P2;durP2;ratioP2
77864;SDS011;67061;48.524;9.040;2023-09-08T00:00:26;8.07;;;6.43;;
77864;SDS011;67061;48.524;9.040;2023-09-08T00:02:53;8.98;;;6.97;;
77864;SDS011;67061;48.524;9.040;2023-09-08T00:05:20;7.80;;;6.35;;
77864;SDS011;67061;48.524;9.040;2023-09-08T00:07:47;8.52;;;6.35;;
77864;SDS011;67061;48.524;9.040;2023-09-08T00:10:14;9.50;;;6.72;;
77864;SDS011;67061;48.524;9.040;2023-09-08T00:12:41;8.88;;;6.43;;
77864;SDS011;67061;48.524;9.040;2023-09-08T00:15:10;9.68;;;6.90;;
77864;SDS011;67061;48.524;9.040;2023-09-08T00:17:37;7.82;;;5.70;;
77864;SDS011;67061;48.524;9.040;2023-09-08T00:20:05;8.07;;;6.55;;
77864;SDS011;67061;48.524;9.040;2023-09-08T00:22:34;9.85;;;6.72;;
77864;SDS011;67061;48.524;9.040;2023-09-08T00:25:01;9.20;;;6.57;;
77864;SDS011;67061;48.524;9.040;2023-09-08T00:27:29;9.43;;;5.57;;
77864;SDS011;67061;48.524;9.040;2023-09-08T00:29:56;8.95;;;6.50;;
77864;SDS011;67061;48.524;9.040;2023-09-08T00:32:24;8.75;;;6.30;;
77864;SDS011;67061;48.524;9.040;2023-09-08T00:34:51;8.90;;;7.43;;
77864;SDS011;67061;48.524;9.040;2023-09-08T00:37:18;10.10;;;7.45;;
77864;SDS011;67061;48.524;9.040;2023-09-08T00:39:45;8.70;;;7.32;;
77864;SDS011;67061;48.524;9.040;2023-09-08T00:42:12;9.10;;;7.18;;
77864;SDS011;67061;48.524;9.040;2023-09-08T00:44:39;9.60;;;7.15;;
77864;SDS011;67061;48.524;9.040;2023-09-08T00:47:06;8.30;;;6.93;;
77864;SDS011;67061;48.524;9.040;2023-09-08T00:49:34;9.23;;;6.70;;
77864;SDS011;67061;48.524;9.040;2023-09-08T00:52:01;7.95;;;6.50;;
77864;SDS011;67061;48.524;9.040;2023-09-08T00:54:29;8.40;;;6.72;;
77864;SDS011;67061;48.524;9.040;2023-09-08T00:56:56;7.55;;;6.07;;
77864;SDS011;67061;48.524;9.040;2023-09-08T00:59:23;8.80;;;6.53;;
77864;SDS011;67061;48.524;9.040;2023-09-08T01:01:50;8.40;;;6.90;;
77864;SDS011;67061;48.524;9.040;2023-09-08T01:04:17;8.98;;;7.47;;
77864;SDS011;67061;48.524;9.040;2023-09-08T01:06:46;8.00;;;6.32;;
77864;SDS011;67061;48.524;9.040;2023-09-08T01:09:13;9.95;;;7.22;;
77864;SDS011;67061;48.524;9.040;2023-09-08T01:11:40;9.93;;;6.90;;
77864;SDS011;67061;48.524;9.040;2023-09-08T01:14:08;12.57;;;7.22;;
77864;SDS011;67061;48.524;9.040;2023-09-08T01:16:37;7.97;;;6.72;;
77864;SDS011;67061;48.524;9.040;2023-09-08T01:19:05;8.60;;;6.88;;
77864;SDS011;67061;48.524;9.040;2023-09-08T01:21:49;9.05;;;6.60;;
77864;SDS011;67061;48.524;9.040;2023-09-08T01:27:45;8.43;;;6.20;;
77864;SDS011;67061;48.524;9.040;2023-09-08T01:30:13;7.80;;;6.97;;
77864;SDS011;67061;48.524;9.040;2023-09-08T01:32:41;10.18;;;6.63;;
77864;SDS011;67061;48.524;9.040;2023-09-08T01:35:09;8.90;;;6.28;;
77864;SDS011;67061;48.524;9.040;2023-09-08T01:37:39;8.68;;;6.25;;
77864;SDS011;67061;48.524;9.040;2023-09-08T01:40:07;10.90;;;7.22;;
77864;SDS011;67061;48.524;9.040;2023-09-08T01:42:36;9.75;;;7.13;;
77864;SDS011;67061;48.524;9.040;2023-09-08T01:45:03;8.65;;;6.75;;
77864;SDS011;67061;48.524;9.040;2023-09-08T01:47:31;9.55;;;6.97;;
77864;SDS011;67061;48.524;9.040;2023-09-08T01:49:58;9.48;;;7.65;;
77864;SDS011;67061;48.524;9.040;2023-09-08T01:52:25;10.45;;;7.43;;
77864;SDS011;67061;48.524;9.040;2023-09-08T01:54:52;9.13;;;6.50;;
77864;SDS011;67061;48.524;9.040;2023-09-08T01:57:18;8.90;;;7.18;;
77864;SDS011;67061;48.524;9.040;2023-09-08T01:59:46;10.95;;;7.22;;
77864;SDS011;67061;48.524;9.040;2023-09-08T02:02:14;9.20;;;7.15;;
77864;SDS011;67061;48.524;9.040;2023-09-08T02:04:40;8.43;;;6.93;;
77864;SDS011;67061;48.524;9.040;2023-09-08T02:07:08;9.07;;;7.35;;
77864;SDS011;67061;48.524;9.040;2023-09-08T02:09:36;8.10;;;6.32;;
77864;SDS011;67061;48.524;9.040;2023-09-08T02:12:04;8.38;;;6.78;;
77864;SDS011;67061;48.524;9.040;2023-09-08T02:14:31;10.70;;;7.20;;
77864;SDS011;67061;48.524;9.040;2023-09-08T02:16:59;10.85;;;7.05;;
77864;SDS011;67061;48.524;9.040;2023-09-08T02:19:27;10.63;;;6.70;;
77864;SDS011;67061;48.524;9.040;2023-09-08T02:21:54;10.10;;;7.38;;
77864;SDS011;67061;48.524;9.040;2023-09-08T02:24:21;8.75;;;7.53;;
77864;SDS011;67061;48.524;9.040;2023-09-08T02:26:47;7.60;;;6.10;;
77864;SDS011;67061;48.524;9.040;2023-09-08T02:29:16;7.72;;;6.35;;
77864;SDS011;67061;48.524;9.040;2023-09-08T02:31:42;8.55;;;6.78;;
77864;SDS011;67061;48.524;9.040;2023-09-08T02:34:11;9.05;;;6.50;;
77864;SDS011;67061;48.524;9.040;2023-09-08T02:36:38;8.25;;;6.57;;
77864;SDS011;67061;48.524;9.040;2023-09-08T02:39:05;8.63;;;7.00;;
77864;SDS011;67061;48.524;9.040;2023-09-08T02:41:32;7.82;;;6.32;;
77864;SDS011;67061;48.524;9.040;2023-09-08T02:44:02;8.35;;;5.82;;
77864;SDS011;67061;48.524;9.040;2023-09-08T02:46:29;8.50;;;6.68;;
77864;SDS011;67061;48.524;9.040;2023-09-08T02:48:56;10.60;;;6.18;;
77864;SDS011;67061;48.524;9.040;2023-09-08T02:51:24;9.88;;;6.85;;
77864;SDS011;67061;48.524;9.040;2023-09-08T02:53:51;8.80;;;7.35;;
77864;SDS011;67061;48.524;9.040;2023-09-08T02:56:18;9.50;;;7.38;;
77864;SDS011;67061;48.524;9.040;2023-09-08T02:58:45;8.75;;;7.20;;
77864;SDS011;67061;48.524;9.040;2023-09-08T03:01:12;11.18;;;6.82;;
77864;SDS011;67061;48.524;9.040;2023-09-08T03:03:40;9.75;;;6.78;;
77864;SDS011;67061;48.524;9.040;2023-09-08T03:06:09;8.48;;;6.40;;
77864;SDS011;67061;48.524;9.040;2023-09-08T03:08:37;9.23;;;6.38;;
77864;SDS011;67061;48.524;9.040;2023-09-08T03:11:04;8.98;;;6.38;;
77864;SDS011;67061;48.524;9.040;2023-09-08T03:13:32;7.28;;;5.35;;
77864;SDS011;67061;48.524;9.040;2023-09-08T03:16:03;10.40;;;6.82;;
77864;SDS011;67061;48.524;9.040;2023-09-08T03:18:31;9.07;;;7.68;;
77864;SDS011;67061;48.524;9.040;2023-09-08T03:20:58;9.07;;;6.47;;
77864;SDS011;67061;48.524;9.040;2023-09-08T03:23:26;8.20;;;6.43;;
77864;SDS011;67061;48.524;9.040;2023-09-08T03:25:55;9.00;;;6.30;;
77864;SDS011;67061;48.524;9.040;2023-09-08T03:28:21;8.30;;;6.18;;
77864;SDS011;67061;48.524;9.040;2023-09-08T03:30:48;7.53;;;6.07;;
77864;SDS011;67061;48.524;9.040;2023-09-08T03:33:15;8.02;;;6.47;;
77864;SDS011;67061;48.524;9.040;2023-09-08T03:35:42;9.82;;;7.07;;
77864;SDS011;67061;48.524;9.040;2023-09-08T03:38:09;9.85;;;6.97;;
77864;SDS011;67061;48.524;9.040;2023-09-08T03:40:36;8.00;;;6.32;;
77864;SDS011;67061;48.524;9.040;2023-09-08T03:43:04;7.95;;;7.13;;
77864;SDS011;67061;48.524;9.040;2023-09-08T03:45:31;9.57;;;6.90;;
77864;SDS011;67061;48.524;9.040;2023-09-08T03:47:58;8.52;;;6.25;;
77864;SDS011;67061;48.524;9.040;2023-09-08T03:50:25;9.20;;;6.38;;
77864;SDS011;67061;48.524;9.040;2023-09-08T03:52:52;11.77;;;7.25;;
77864;SDS011;67061;48.524;9.040;2023-09-08T03:55:19;9.02;;;7.07;;
77864;SDS011;67061;48.524;9.040;2023-09-08T03:57:46;9.48;;;6.78;;
77864;SDS011;67061;48.524;9.040;2023-09-08T04:00:15;9.10;;;7.15;;
77864;SDS011;67061;48.524;9.040;2023-09-08T04:02:46;11.18;;;7.43;;
77864;SDS011;67061;48.524;9.040;2023-09-08T04:05:13;9.38;;;7.30;;
77864;SDS011;67061;48.524;9.040;2023-09-08T04:07:40;8.98;;;6.43;;
77864;SDS011;67061;48.524;9.040;2023-09-08T04:10:08;10.45;;;6.82;;
77864;SDS011;67061;48.524;9.040;2023-09-08T04:12:36;9.68;;;7.10;;
77864;SDS011;67061;48.524;9.040;2023-09-08T04:15:03;9.98;;;7.10;;
77864;SDS011;67061;48.524;9.040;2023-09-08T04:17:32;8.20;;;6.68;;
77864;SDS011;67061;48.524;9.040;2023-09-08T04:19:59;9.40;;;7.00;;
77864;SDS011;67061;48.524;9.040;2023-09-08T04:22:26;11.52;;;7.20;;
77864;SDS011;67061;48.524;9.040;2023-09-08T04:24:52;9.68;;;7.32;;
77864;SDS011;67061;48.524;9.040;2023-09-08T04:27:21;8.75;;;6.43;;
77864;SDS011;67061;48.524;9.040;2023-09-08T04:29:48;9.65;;;6.82;;
77864;SDS011;67061;48.524;9.040;2023-09-08T04:32:15;9.00;;;7.47;;
77864;SDS011;67061;48.524;9.040;2023-09-08T04:34:43;9.75;;;7.60;;
77864;SDS011;67061;48.524;9.040;2023-09-08T04:37:10;9.93;;;7.97;;
77864;SDS011;67061;48.524;9.040;2023-09-08T04:39:37;9.60;;;7.25;;
77864;SDS011;67061;48.524;9.040;2023-09-08T04:42:04;10.25;;;6.70;;
77864;SDS011;67061;48.524;9.040;2023-09-08T04:44:31;9.02;;;7.05;;
77864;SDS011;67061;48.524;9.040;2023-09-08T04:46:58;9.20;;;6.30;;
77864;SDS011;67061;48.524;9.040;2023-09-08T04:49:26;10.80;;;7.70;;
77864;SDS011;67061;48.524;9.040;2023-09-08T04:51:55;11.52;;;7.10;;
77864;SDS011;67061;48.524;9.040;2023-09-08T04:54:22;9.07;;;6.85;;
77864;SDS011;67061;48.524;9.040;2023-09-08T04:56:52;9.38;;;7.43;;
77864;SDS011;67061;48.524;9.040;2023-09-08T04:59:19;8.82;;;6.75;;
77864;SDS011;67061;48.524;9.040;2023-09-08T05:01:46;8.90;;;7.20;;
77864;SDS011;67061;48.524;9.040;2023-09-08T05:04:13;9.48;;;6.50;;
77864;SDS011;67061;48.524;9.040;2023-09-08T05:06:40;10.75;;;7.28;;
77864;SDS011;67061;48.524;9.040;2023-09-08T05:09:08;10.43;;;6.97;;
77864;SDS011;67061;48.524;9.040;2023-09-08T05:11:35;8.45;;;6.65;;
77864;SDS011;67061;48.524;9.040;2023-09-08T05:14:02;11.02;;;6.80;;
77864;SDS011;67061;48.524;9.040;2023-09-08T05:16:29;9.10;;;7.57;;
77864;SDS011;67061;48.524;9.040;2023-09-08T05:19:04;11.45;;;7.97;;
77864;SDS011;67061;48.524;9.040;2023-09-08T05:21:32;9.48;;;7.70;;
77864;SDS011;67061;48.524;9.040;2023-09-08T05:24:00;10.00;;;7.15;;
77864;SDS011;67061;48.524;9.040;2023-09-08T05:26:28;12.63;;;8.10;;
77864;SDS011;67061;48.524;9.040;2023-09-08T05:28:55;10.65;;;7.70;;
77864;SDS011;67061;48.524;9.040;2023-09-08T05:31:22;11.05;;;7.93;;
77864;SDS011;67061;48.524;9.040;2023-09-08T05:33:49;12.32;;;7.30;;
77864;SDS011;67061;48.524;9.040;2023-09-08T05:36:15;11.52;;;7.60;;
77864;SDS011;67061;48.524;9.040;2023-09-08T05:38:42;11.55;;;7.85;;
77864;SDS011;67061;48.524;9.040;2023-09-08T05:41:09;10.93;;;7.97;;
77864;SDS011;67061;48.524;9.040;2023-09-08T05:43:38;12.10;;;8.65;;
77864;SDS011;67061;48.524;9.040;2023-09-08T05:46:05;11.48;;;8.23;;
77864;SDS011;67061;48.524;9.040;2023-09-08T05:48:31;10.65;;;8.75;;
77864;SDS011;67061;48.524;9.040;2023-09-08T05:50:58;11.23;;;7.50;;
77864;SDS011;67061;48.524;9.040;2023-09-08T05:53:27;10.70;;;7.57;;
77864;SDS011;67061;48.524;9.040;2023-09-08T05:55:54;9.25;;;8.07;;
77864;SDS011;67061;48.524;9.040;2023-09-08T05:58:21;9.30;;;6.25;;
77864;SDS011;67061;48.524;9.040;2023-09-08T06:00:50;9.95;;;7.22;;
77864;SDS011;67061;48.524;9.040;2023-09-08T06:03:17;11.75;;;7.88;;
77864;SDS011;67061;48.524;9.040;2023-09-08T06:05:44;10.45;;;8.07;;
77864;SDS011;67061;48.524;9.040;2023-09-08T06:08:11;9.73;;;7.32;;
77864;SDS011;67061;48.524;9.040;2023-09-08T06:10:38;10.48;;;7.90;;
77864;SDS011;67061;48.524;9.040;2023-09-08T06:13:05;10.75;;;8.95;;
77864;SDS011;67061;48.524;9.040;2023-09-08T06:15:32;10.10;;;7.72;;
77864;SDS011;67061;48.524;9.040;2023-09-08T06:18:00;11.55;;;8.43;;
77864;SDS011;67061;48.524;9.040;2023-09-08T06:20:28;11.60;;;8.25;;
77864;SDS011;67061;48.524;9.040;2023-09-08T06:22:55;11.65;;;8.68;;
77864;SDS011;67061;48.524;9.040;2023-09-08T06:25:22;10.23;;;7.82;;
77864;SDS011;67061;48.524;9.040;2023-09-08T06:27:49;10.45;;;8.50;;
77864;SDS011;67061;48.524;9.040;2023-09-08T06:30:15;10.82;;;7.78;;
77864;SDS011;67061;48.524;9.040;2023-09-08T06:32:43;11.57;;;8.63;;
77864;SDS011;67061;48.524;9.040;2023-09-08T06:35:11;12.75;;;7.80;;
77864;SDS011;67061;48.524;9.040;2023-09-08T06:37:38;11.25;;;8.45;;
77864;SDS011;67061;48.524;9.040;2023-09-08T06:40:06;12.73;;;9.45;;
77864;SDS011;67061;48.524;9.040;2023-09-08T06:42:33;12.60;;;8.73;;
77864;SDS011;67061;48.524;9.040;2023-09-08T06:45:00;13.70;;;9.77;;
77864;SDS011;67061;48.524;9.040;2023-09-08T06:47:27;14.40;;;9.48;;
77864;SDS011;67061;48.524;9.040;2023-09-08T06:49:54;11.98;;;7.65;;
77864;SDS011;67061;48.524;9.040;2023-09-08T06:52:22;12.07;;;9.52;;
77864;SDS011;67061;48.524;9.040;2023-09-08T06:54:50;12.38;;;9.05;;
77864;SDS011;67061;48.524;9.040;2023-09-08T06:57:17;12.65;;;10.65;;
77864;SDS011;67061;48.524;9.040;2023-09-08T06:59:46;14.43;;;9.00;;
77864;SDS011;67061;48.524;9.040;2023-09-08T07:02:12;14.13;;;10.23;;
77864;SDS011;67061;48.524;9.040;2023-09-08T07:04:39;12.30;;;9.85;;
77864;SDS011;67061;48.524;9.040;2023-09-08T07:07:06;14.38;;;10.77;;
77864;SDS011;67061;48.524;9.040;2023-09-08T07:09:35;13.07;;;9.57;;
77864;SDS011;67061;48.524;9.040;2023-09-08T07:12:02;12.20;;;9.77;;
77864;SDS011;67061;48.524;9.040;2023-09-08T07:14:30;12.15;;;9.90;;
77864;SDS011;67061;48.524;9.040;2023-09-08T07:16:57;15.27;;;9.68;;
77864;SDS011;67061;48.524;9.040;2023-09-08T07:19:24;13.13;;;9.50;;
77864;SDS011;67061;48.524;9.040;2023-09-08T07:21:52;13.75;;;10.10;;
77864;SDS011;67061;48.524;9.040;2023-09-08T07:24:19;10.82;;;9.15;;
77864;SDS011;67061;48.524;9.040;2023-09-08T07:26:47;11.43;;;8.45;;
77864;SDS011;67061;48.524;9.040;2023-09-08T07:29:14;13.73;;;9.57;;
77864;SDS011;67061;48.524;9.040;2023-09-08T07:31:41;12.88;;;9.98;;
77864;SDS011;67061;48.524;9.040;2023-09-08T07:34:08;12.02;;;9.93;;
77864;SDS011;67061;48.524;9.040;2023-09-08T07:36:35;13.60;;;9.75;;
77864;SDS011;67061;48.524;9.040;2023-09-08T07:39:03;11.88;;;9.60;;
77864;SDS011;67061;48.524;9.040;2023-09-08T07:41:30;11.10;;;9.50;;
77864;SDS011;67061;48.524;9.040;2023-09-08T07:43:58;12.68;;;9.45;;
77864;SDS011;67061;48.524;9.040;2023-09-08T07:46:25;12.23;;;10.23;;
77864;SDS011;67061;48.524;9.040;2023-09-08T07:48:52;12.52;;;10.07;;
77864;SDS011;67061;48.524;9.040;2023-09-08T07:51:20;12.77;;;10.60;;
77864;SDS011;67061;48.524;9.040;2023-09-08T07:53:47;12.65;;;10.75;;
77864;SDS011;67061;48.524;9.040;2023-09-08T07:56:13;11.35;;;9.60;;
77864;SDS011;67061;48.524;9.040;2023-09-08T07:58:40;10.93;;;9.18;;
77864;SDS011;67061;48.524;9.040;2023-09-08T08:01:09;11.32;;;9.68;;
77864;SDS011;67061;48.524;9.040;2023-09-08T08:03:36;10.02;;;8.93;;
77864;SDS011;67061;48.524;9.040;2023-09-08T08:06:03;10.35;;;8.13;;
77864;SDS011;67061;48.524;9.040;2023-09-08T08:08:30;11.35;;;8.73;;
77864;SDS011;67061;48.524;9.040;2023-09-08T08:10:57;11.13;;;8.90;;
77864;SDS011;67061;48.524;9.040;2023-09-08T08:13:25;11.82;;;8.93;;
77864;SDS011;67061;48.524;9.040;2023-09-08T08:15:51;9.77;;;8.25;;
77864;SDS011;67061;48.524;9.040;2023-09-08T08:18:20;10.77;;;8.95;;
77864;SDS011;67061;48.524;9.040;2023-09-08T08:20:47;9.63;;;8.63;;
77864;SDS011;67061;48.524;9.040;2023-09-08T08:23:13;10.10;;;8.35;;
77864;SDS011;67061;48.524;9.040;2023-09-08T08:25:40;11.18;;;8.50;;
77864;SDS011;67061;48.524;9.040;2023-09-08T08:28:07;11.05;;;8.60;;
77864;SDS011;67061;48.524;9.040;2023-09-08T08:30:34;10.63;;;9.52;;
77864;SDS011;67061;48.524;9.040;2023-09-08T08:33:01;9.82;;;8.70;;
77864;SDS011;67061;48.524;9.040;2023-09-08T08:35:34;10.77;;;9.57;;
77864;SDS011;67061;48.524;9.040;2023-09-08T08:38:01;9.50;;;8.45;;
77864;SDS011;67061;48.524;9.040;2023-09-08T08:40:28;10.48;;;8.68;;
77864;SDS011;67061;48.524;9.040;2023-09-08T08:42:55;10.95;;;9.60;;
77864;SDS011;67061;48.524;9.040;2023-09-08T08:45:23;16.70;;;12.23;;
77864;SDS011;67061;48.524;9.040;2023-09-08T08:47:51;9.10;;;7.97;;
77864;SDS011;67061;48.524;9.040;2023-09-08T08:50:18;9.00;;;7.75;;
77864;SDS011;67061;48.524;9.040;2023-09-08T08:52:47;8.90;;;8.00;;
77864;SDS011;67061;48.524;9.040;2023-09-08T08:55:15;8.85;;;7.43;;
77864;SDS011;67061;48.524;9.040;2023-09-08T08:57:41;10.55;;;7.57;;
77864;SDS011;67061;48.524;9.040;2023-09-08T09:00:10;8.52;;;7.40;;
77864;SDS011;67061;48.524;9.040;2023-09-08T09:02:38;8.25;;;7.47;;
77864;SDS011;67061;48.524;9.040;2023-09-08T09:05:07;8.57;;;7.57;;
77864;SDS011;67061;48.524;9.040;2023-09-08T09:07:35;10.77;;;9.07;;
77864;SDS011;67061;48.524;9.040;2023-09-08T09:10:04;8.60;;;7.80;;
77864;SDS011;67061;48.524;9.040;2023-09-08T09:12:33;8.88;;;7.10;;
77864;SDS011;67061;48.524;9.040;2023-09-08T09:15:00;9.30;;;7.85;;
77864;SDS011;67061;48.524;9.040;2023-09-08T09:17:29;10.00;;;7.53;;
77864;SDS011;67061;48.524;9.040;2023-09-08T09:20:11;8.77;;;7.88;;
77864;SDS011;67061;48.524;9.040;2023-09-08T09:22:39;9.27;;;7.70;;
77864;SDS011;67061;48.524;9.040;2023-09-08T09:25:09;7.90;;;6.78;;
77864;SDS011;67061;48.524;9.040;2023-09-08T09:27:36;8.60;;;7.10;;
77864;SDS011;67061;48.524;9.040;2023-09-08T09:30:06;9.00;;;7.85;;
77864;SDS011;67061;48.524;9.040;2023-09-08T09:32:34;8.15;;;6.93;;
77864;SDS011;67061;48.524;9.040;2023-09-08T09:35:01;8.85;;;7.70;;
77864;SDS011;67061;48.524;9.040;2023-09-08T09:37:29;11.45;;;7.60;;
77864;SDS011;67061;48.524;9.040;2023-09-08T09:39:56;8.00;;;6.10;;
77864;SDS011;67061;48.524;9.040;2023-09-08T09:42:24;9.85;;;8.90;;
77864;SDS011;67061;48.524;9.040;2023-09-08T09:44:54;7.07;;;6.05;;
77864;SDS011;67061;48.524;9.040;2023-09-08T09:47:21;10.05;;;9.02;;
77864;SDS011;67061;48.524;9.040;2023-09-08T09:49:49;9.52;;;8.48;;
77864;SDS011;67061;48.524;9.040;2023-09-08T09:52:20;9.32;;;7.03;;
77864;SDS011;67061;48.524;9.040;2023-09-08T09:54:49;8.95;;;8.15;;
77864;SDS011;67061;48.524;9.040;2023-09-08T09:57:19;9.45;;;8.43;;
77864;SDS011;67061;48.524;9.040;2023-09-08T09:59:48;9.10;;;8.20;;
77864;SDS011;67061;48.524;9.040;2023-09-08T10:02:16;9.50;;;7.80;;
77864;SDS011;67061;48.524;9.040;2023-09-08T10:04:45;9.15;;;7.32;;
77864;SDS011;67061;48.524;9.040;2023-09-08T10:07:14;7.47;;;6.72;;
77864;SDS011;67061;48.524;9.040;2023-09-08T10:09:51;8.60;;;7.50;;
77864;SDS011;67061;48.524;9.040;2023-09-08T10:12:18;9.02;;;7.90;;
77864;SDS011;67061;48.524;9.040;2023-09-08T10:14:45;9.18;;;8.25;;
77864;SDS011;67061;48.524;9.040;2023-09-08T10:17:19;8.82;;;7.95;;
77864;SDS011;67061;48.524;9.040;2023-09-08T10:19:53;9.02;;;8.18;;
77864;SDS011;67061;48.524;9.040;2023-09-08T10:22:23;8.77;;;7.47;;
77864;SDS011;67061;48.524;9.040;2023-09-08T10:24:56;8.95;;;8.05;;
77864;SDS011;67061;48.524;9.040;2023-09-08T10:27:26;8.15;;;7.10;;
77864;SDS011;67061;48.524;9.040;2023-09-08T10:29:55;10.68;;;8.02;;
77864;SDS011;67061;48.524;9.040;2023-09-08T10:32:22;8.05;;;7.15;;
77864;SDS011;67061;48.524;9.040;2023-09-08T10:34:50;8.30;;;7.38;;
77864;SDS011;67061;48.524;9.040;2023-09-08T10:37:19;8.55;;;7.75;;
77864;SDS011;67061;48.524;9.040;2023-09-08T10:39:46;9.73;;;8.02;;
77864;SDS011;67061;48.524;9.040;2023-09-08T10:42:20;9.48;;;7.13;;
77864;SDS011;67061;48.524;9.040;2023-09-08T10:44:58;9.18;;;7.70;;
77864;SDS011;67061;48.524;9.040;2023-09-08T10:47:33;8.38;;;7.57;;
77864;SDS011;67061;48.524;9.040;2023-09-08T10:50:08;8.57;;;7.68;;
77864;SDS011;67061;48.524;9.040;2023-09-08T10:53:03;8.43;;;7.63;;
77864;SDS011;67061;48.524;9.040;2023-09-08T10:55:34;8.40;;;7.60;;
77864;SDS011;67061;48.524;9.040;2023-09-08T10:58:03;9.43;;;7.32;;
77864;SDS011;67061;48.524;9.040;2023-09-08T11:00:43;8.48;;;7.47;;
77864;SDS011;67061;48.524;9.040;2023-09-08T11:03:12;8.32;;;7.53;;
77864;SDS011;67061;48.524;9.040;2023-09-08T11:05:41;8.82;;;8.00;;
77864;SDS011;67061;48.524;9.040;2023-09-08T11:08:08;7.85;;;7.05;;
77864;SDS011;67061;48.524;9.040;2023-09-08T11:10:35;8.77;;;7.85;;
77864;SDS011;67061;48.524;9.040;2023-09-08T11:13:05;9.20;;;8.30;;
77864;SDS011;67061;48.524;9.040;2023-09-08T11:15:32;7.88;;;6.60;;
77864;SDS011;67061;48.524;9.040;2023-09-08T11:18:05;7.95;;;7.15;;
77864;SDS011;67061;48.524;9.040;2023-09-08T11:20:34;6.78;;;5.72;;
77864;SDS011;67061;48.524;9.040;2023-09-08T11:23:01;8.52;;;7.07;;
77864;SDS011;67061;48.524;9.040;2023-09-08T11:25:30;8.95;;;7.47;;
77864;SDS011;67061;48.524;9.040;2023-09-08T11:27:58;8.38;;;7.57;;
77864;SDS011;67061;48.524;9.040;2023-09-08T11:30:25;8.57;;;6.88;;
77864;SDS011;67061;48.524;9.040;2023-09-08T11:32:53;8.40;;;7.60;;
77864;SDS011;67061;48.524;9.040;2023-09-08T11:35:21;9.68;;;7.53;;
77864;SDS011;67061;48.524;9.040;2023-09-08T11:37:52;8.05;;;7.00;;
77864;SDS011;67061;48.524;9.040;2023-09-08T11:40:20;7.78;;;6.65;;
77864;SDS011;67061;48.524;9.040;2023-09-08T11:42:47;7.45;;;6.72;;
77864;SDS011;67061;48.524;9.040;2023-09-08T11:45:14;10.77;;;6.93;;
77864;SDS011;67061;48.524;9.040;2023-09-08T11:47:43;6.97;;;6.28;;
77864;SDS011;67061;48.524;9.040;2023-09-08T11:50:10;7.47;;;6.78;;
77864;SDS011;67061;48.524;9.040;2023-09-08T11:52:42;7.80;;;7.10;;
77864;SDS011;67061;48.524;9.040;2023-09-08T11:55:10;7.95;;;7.13;;
77864;SDS011;67061;48.524;9.040;2023-09-08T11:57:38;7.50;;;6.07;;
77864;SDS011;67061;48.524;9.040;2023-09-08T12:00:06;7.13;;;6.50;;
77864;SDS011;67061;48.524;9.040;2023-09-08T12:02:36;7.57;;;6.00;;
77864;SDS011;67061;48.524;9.040;2023-09-08T12:05:03;7.07;;;6.13;;
77864;SDS011;67061;48.524;9.040;2023-09-08T12:07:30;6.75;;;6.05;;
77864;SDS011;67061;48.524;9.040;2023-09-08T12:09:58;7.60;;;6.30;;
77864;SDS011;67061;48.524;9.040;2023-09-08T12:12:35;6.75;;;6.15;;
77864;SDS011;67061;48.524;9.040;2023-09-08T12:15:09;6.82;;;6.13;;
77864;SDS011;67061;48.524;9.040;2023-09-08T12:17:46;6.90;;;6.20;;
77864;SDS011;67061;48.524;9.040;2023-09-08T12:20:13;6.50;;;5.90;;
77864;SDS011;67061;48.524;9.040;2023-09-08T12:25:15;6.80;;;6.20;;
77864;SDS011;67061;48.524;9.040;2023-09-08T12:27:42;9.23;;;6.05;;
77864;SDS011;67061;48.524;9.040;2023-09-08T12:30:15;6.97;;;5.70;;
77864;SDS011;67061;48.524;9.040;2023-09-08T12:32:44;5.80;;;4.63;;
77864;SDS011;67061;48.524;9.040;2023-09-08T12:35:13;7.63;;;6.30;;
77864;SDS011;67061;48.524;9.040;2023-09-08T12:37:45;6.82;;;5.03;;
77864;SDS011;67061;48.524;9.040;2023-09-08T12:40:12;7.97;;;5.53;;
77864;SDS011;67061;48.524;9.040;2023-09-08T12:42:42;7.28;;;6.28;;
77864;SDS011;67061;48.524;9.040;2023-09-08T12:45:09;7.10;;;5.75;;
77864;SDS011;67061;48.524;9.040;2023-09-08T12:47:36;7.05;;;5.97;;
77864;SDS011;67061;48.524;9.040;2023-09-08T12:50:04;6.35;;;5.85;;
77864;SDS011;67061;48.524;9.040;2023-09-08T12:52:32;7.15;;;6.05;;
77864;SDS011;67061;48.524;9.040;2023-09-08T12:54:59;10.98;;;6.63;;
77864;SDS011;67061;48.524;9.040;2023-09-08T12:57:26;7.50;;;5.72;;
77864;SDS011;67061;48.524;9.040;2023-09-08T12:59:56;9.50;;;7.45;;
77864;SDS011;67061;48.524;9.040;2023-09-08T13:02:23;7.32;;;6.28;;
77864;SDS011;67061;48.524;9.040;2023-09-08T13:04:50;8.70;;;6.30;;
77864;SDS011;67061;48.524;9.040;2023-09-08T13:07:17;9.27;;;8.35;;
77864;SDS011;67061;48.524;9.040;2023-09-08T13:09:44;7.22;;;6.53;;
77864;SDS011;67061;48.524;9.040;2023-09-08T13:12:11;7.70;;;7.00;;
77864;SDS011;67061;48.524;9.040;2023-09-08T13:14:38;6.43;;;5.82;;
77864;SDS011;67061;48.524;9.040;2023-09-08T13:17:07;7.70;;;7.00;;
77864;SDS011;67061;48.524;9.040;2023-09-08T13:19:34;8.48;;;6.38;;
77864;SDS011;67061;48.524;9.040;2023-09-08T13:22:03;7.05;;;5.57;;
77864;SDS011;67061;48.524;9.040;2023-09-08T13:24:30;7.55;;;6.85;;
77864;SDS011;67061;48.524;9.040;2023-09-08T13:26:57;7.45;;;6.03;;
77864;SDS011;67061;48.524;9.040;2023-09-08T13:29:24;7.00;;;6.30;;
77864;SDS011;67061;48.524;9.040;2023-09-08T13:34:20;6.13;;;5.53;;
77864;SDS011;67061;48.524;9.040;2023-09-08T13:36:47;6.95;;;6.28;;
77864;SDS011;67061;48.524;9.040;2023-09-08T13:39:14;7.40;;;6.47;;
77864;SDS011;67061;48.524;9.040;2023-09-08T13:41:45;7.80;;;6.10;;
77864;SDS011;67061;48.524;9.040;2023-09-08T13:44:13;6.88;;;6.20;;
77864;SDS011;67061;48.524;9.040;2023-09-08T13:46:40;7.03;;;5.55;;
77864;SDS011;67061;48.524;9.040;2023-09-08T13:49:07;6.68;;;6.07;;
77864;SDS011;67061;48.524;9.040;2023-09-08T13:51:35;6.93;;;6.25;;
77864;SDS011;67061;48.524;9.040;2023-09-08T13:54:02;7.25;;;6.00;;
77864;SDS011;67061;48.524;9.040;2023-09-08T13:56:29;7.07;;;5.78;;
77864;SDS011;67061;48.524;9.040;2023-09-08T13:58:56;7.00;;;6.40;;
77864;SDS011;67061;48.524;9.040;2023-09-08T14:01:23;5.88;;;4.68;;
77864;SDS011;67061;48.524;9.040;2023-09-08T14:03:52;6.90;;;6.20;;
77864;SDS011;67061;48.524;9.040;2023-09-08T14:06:20;5.93;;;5.32;;
77864;SDS011;67061;48.524;9.040;2023-09-08T14:08:49;7.82;;;6.50;;
77864;SDS011;67061;48.524;9.040;2023-09-08T14:11:16;6.65;;;6.05;;
77864;SDS011;67061;48.524;9.040;2023-09-08T14:13:43;6.72;;;6.03;;
77864;SDS011;67061;48.524;9.040;2023-09-08T14:16:10;7.68;;;6.97;;
77864;SDS011;67061;48.524;9.040;2023-09-08T14:18:37;6.43;;;5.82;;
77864;SDS011;67061;48.524;9.040;2023-09-08T14:21:04;6.85;;;6.20;;
77864;SDS011;67061;48.524;9.040;2023-09-08T14:23:31;6.88;;;6.28;;
77864;SDS011;67061;48.524;9.040;2023-09-08T14:28:28;7.13;;;6.53;;
77864;SDS011;67061;48.524;9.040;2023-09-08T14:30:57;7.10;;;6.40;;
77864;SDS011;67061;48.524;9.040;2023-09-08T14:33:24;7.32;;;5.70;;
77864;SDS011;67061;48.524;9.040;2023-09-08T14:35:51;6.75;;;6.05;;
77864;SDS011;67061;48.524;9.040;2023-09-08T14:40:53;7.07;;;6.10;;
77864;SDS011;67061;48.524;9.040;2023-09-08T14:43:22;7.18;;;6.47;;
77864;SDS011;67061;48.524;9.040;2023-09-08T14:45:49;8.63;;;6.47;;
77864;SDS011;67061;48.524;9.040;2023-09-08T14:48:17;6.57;;;5.95;;
77864;SDS011;67061;48.524;9.040;2023-09-08T14:50:44;7.85;;;6.32;;
77864;SDS011;67061;48.524;9.040;2023-09-08T14:53:11;6.75;;;6.05;;
77864;SDS011;67061;48.524;9.040;2023-09-08T14:55:38;6.97;;;6.00;;
77864;SDS011;67061;48.524;9.040;2023-09-08T14:58:05;10.07;;;6.18;;
77864;SDS011;67061;48.524;9.040;2023-09-08T15:00:33;6.63;;;6.03;;